Zwettl Stadt, Austria
Current Conditions -  °F | °C
As of 10:50 PM on Saturday 22 Nov 2014 (Local Time) from LOXT Reporting Station
Overcast Overcast  
Wind Chill: 39°   Ceiling: 1400
Heat Index: 43°   Visibility: 5mi
Dew Point: 39°   Wind: 6mph
Humidity: 87%   Direction: 40°NE
Pressure: 30.3"   Gusts: NA
Location:  48.62°N, 15.17°E
Report Text: LOXT 222050Z 04005KT 8000 OVC014SC 06/04 Q1026 RMK OVC
Loading
Personal Weather Stations






























Interactive Weather Map New forecast layout! Learn more

10-Day Weather Forecast

Advertisements
Track Severe Weather on mobile